Time;durP1;ratioP1;P1;durP2;ratioP2;P2;SDS_P1;SDS_P2;PMS_P1;PMS_P2;Temp;Humidity;BMP_temperature;BMP_pressure;BME280_temperature;BME280_humidity;BME280_pressure;Samples;Min_cycle;Max_cycle;Signal;HPM_P1;HPM_P2
2022/02/11 05:02:42;;;;;;;7.90;7.30;;;3.60;99.90;;;;;;4936408;29;20478;-64
2022/02/11 05:05:09;;;;;;;7.00;6.50;;;3.70;99.90;;;;;;4938944;29;20486;-65
2022/02/11 05:07:36;;;;;;;6.73;6.23;;;3.70;99.90;;;;;;4938465;29;20473;-64
2022/02/11 05:10:04;;;;;;;7.80;7.10;;;3.80;99.90;;;;;;4937974;29;20460;-64
2022/02/11 05:12:31;;;;;;;7.67;6.97;;;3.80;99.90;;;;;;4937045;29;20992;-64
2022/02/11 05:14:58;;;;;;;7.57;6.97;;;3.80;99.90;;;;;;4937265;29;20460;-65
2022/02/11 05:17:24;;;;;;;7.80;7.10;;;3.80;99.90;;;;;;4937410;29;20463;-64
2022/02/11 05:19:52;;;;;;;7.87;7.17;;;3.80;99.90;;;;;;4937300;29;20942;-65
2022/02/11 05:22:19;;;;;;;9.17;6.97;;;3.90;99.90;;;;;;4937184;29;21010;-65
2022/02/11 05:24:46;;;;;;;8.40;7.70;;;3.90;99.90;;;;;;4937087;29;20488;-64
2022/02/11 05:27:12;;;;;;;9.03;8.20;;;3.90;99.90;;;;;;4936909;29;20958;-64
2022/02/11 05:29:39;;;;;;;9.83;8.83;;;3.90;99.90;;;;;;4937361;29;20464;-64
2022/02/11 05:32:07;;;;;;;9.00;8.20;;;3.80;99.90;;;;;;4937258;29;20477;-64
2022/02/11 05:34:33;;;;;;;9.80;8.60;;;3.80;99.90;;;;;;4939827;29;20462;-64
2022/02/11 05:37:01;;;;;;;10.90;9.50;;;3.80;99.90;;;;;;4945443;29;20458;-65
2022/02/11 05:39:28;;;;;;;9.00;8.20;;;3.80;99.90;;;;;;4944461;29;20467;-64
2022/02/11 05:41:55;;;;;;;10.60;9.70;;;3.80;99.90;;;;;;4937153;29;20480;-65
2022/02/11 05:44:21;;;;;;;9.70;8.90;;;3.90;99.90;;;;;;4937265;29;20486;-65
2022/02/11 05:46:50;;;;;;;9.00;8.27;;;3.90;99.90;;;;;;4937096;29;20478;-64
2022/02/11 05:49:17;;;;;;;10.70;9.70;;;4.00;99.90;;;;;;4937063;29;20821;-66
2022/02/11 05:51:44;;;;;;;9.57;8.67;;;4.00;99.90;;;;;;4937116;29;20833;-66
2022/02/11 05:54:12;;;;;;;8.47;7.57;;;4.00;99.90;;;;;;4937024;29;20440;-66
2022/02/11 05:56:39;;;;;;;8.80;8.00;;;4.00;99.90;;;;;;4937095;29;20457;-66
2022/02/11 05:59:06;;;;;;;8.13;7.43;;;4.00;99.90;;;;;;4936714;29;20505;-65
2022/02/11 06:01:33;;;;;;;8.03;7.33;;;4.00;99.90;;;;;;4936642;29;20492;-66
2022/02/11 06:04:00;;;;;;;8.30;7.50;;;4.10;99.90;;;;;;4936767;29;20487;-65
2022/02/11 06:06:26;;;;;;;7.97;7.17;;;4.10;99.90;;;;;;4936974;29;20467;-65
2022/02/11 06:08:53;;;;;;;8.00;7.30;;;4.10;99.90;;;;;;4937018;29;20447;-65
2022/02/11 06:11:21;;;;;;;6.43;5.93;;;4.10;99.90;;;;;;4938317;29;20515;-65
2022/02/11 06:13:48;;;;;;;7.23;6.53;;;4.00;99.90;;;;;;4936643;29;20466;-65
2022/02/11 06:16:15;;;;;;;5.90;5.40;;;4.00;99.90;;;;;;4937375;29;20461;-65
2022/02/11 06:18:42;;;;;;;6.23;5.63;;;4.00;99.90;;;;;;4937696;29;20459;-66
2022/02/11 06:21:08;;;;;;;6.33;5.73;;;4.00;99.90;;;;;;4936913;29;20485;-64
2022/02/11 06:23:35;;;;;;;9.20;6.10;;;3.90;99.90;;;;;;4936166;29;20460;-64
2022/02/11 06:26:02;;;;;;;5.70;5.30;;;3.90;99.90;;;;;;4938659;29;20459;-64
2022/02/11 06:28:30;;;;;;;7.07;6.47;;;3.90;99.90;;;;;;4940296;29;20471;-64
2022/02/11 06:30:57;;;;;;;6.70;6.00;;;3.90;99.90;;;;;;4940312;29;20480;-64
2022/02/11 06:33:24;;;;;;;8.10;6.00;;;3.90;99.90;;;;;;4940248;29;20460;-64
2022/02/11 06:35:51;;;;;;;6.90;6.27;;;3.80;99.90;;;;;;4940467;29;20808;-64
2022/02/11 06:38:18;;;;;;;7.80;7.10;;;3.80;99.90;;;;;;4940126;29;20456;-64
2022/02/11 06:40:45;;;;;;;7.90;7.10;;;3.80;99.90;;;;;;4940335;29;20507;-64
2022/02/11 06:43:14;;;;;;;7.93;6.97;;;3.80;99.90;;;;;;4940141;29;20487;-64
2022/02/11 06:45:42;;;;;;;7.50;6.80;;;3.80;99.90;;;;;;4939806;29;20485;-64
2022/02/11 06:48:08;;;;;;;7.90;7.10;;;3.80;99.90;;;;;;4939591;29;21002;-64
2022/02/11 06:50:35;;;;;;;8.47;6.90;;;3.80;99.90;;;;;;4939808;29;20485;-64
2022/02/11 06:53:02;;;;;;;8.57;7.00;;;3.70;99.90;;;;;;4940032;29;20459;-64
2022/02/11 06:55:29;;;;;;;7.27;6.67;;;3.70;99.90;;;;;;4939888;29;20949;-64
2022/02/11 06:57:56;;;;;;;7.93;7.23;;;3.70;99.90;;;;;;4939651;29;20457;-64
2022/02/11 07:00:22;;;;;;;8.43;7.63;;;3.70;99.90;;;;;;4939394;29;20465;-64
2022/02/11 07:02:51;;;;;;;9.07;7.60;;;3.70;99.90;;;;;;4939727;29;20444;-64
2022/02/11 07:05:19;;;;;;;7.30;6.63;;;3.80;99.90;;;;;;4939543;29;20477;-64
2022/02/11 07:07:47;;;;;;;8.60;6.87;;;3.80;99.90;;;;;;4939347;29;20936;-64
2022/02/11 07:10:14;;;;;;;9.03;7.60;;;3.70;99.90;;;;;;4939179;29;20943;-64
2022/02/11 07:12:41;;;;;;;9.20;7.97;;;3.80;99.90;;;;;;4939610;29;20486;-64
2022/02/11 07:15:08;;;;;;;8.27;7.47;;;3.80;99.90;;;;;;4939153;29;20460;-64
2022/02/11 07:17:35;;;;;;;7.30;6.70;;;3.80;99.90;;;;;;4939879;29;20459;-65
2022/02/11 07:20:05;;;;;;;7.90;7.13;;;3.90;99.90;;;;;;4939122;29;20936;-64
2022/02/11 07:22:34;;;;;;;9.80;7.63;;;3.90;99.90;;;;;;4939241;29;20483;-66
2022/02/11 07:25:01;;;;;;;7.13;6.43;;;3.90;99.90;;;;;;4939223;29;20836;-65
2022/02/11 07:27:28;;;;;;;7.00;6.30;;;4.00;99.90;;;;;;4939064;29;20459;-65
2022/02/11 07:29:55;;;;;;;7.23;5.87;;;4.00;99.90;;;;;;4939103;29;20458;-66
2022/02/11 07:32:21;;;;;;;6.67;6.07;;;4.00;99.90;;;;;;4939039;29;20487;-66
2022/02/11 07:34:48;;;;;;;7.83;7.10;;;4.10;99.90;;;;;;4939076;29;20457;-65
2022/02/11 07:37:16;;;;;;;8.43;7.63;;;4.30;99.90;;;;;;4938234;29;20963;-65
2022/02/11 07:39:43;;;;;;;6.90;6.27;;;4.70;99.90;;;;;;4939642;29;20471;-65
2022/02/11 07:42:09;;;;;;;6.47;5.80;;;5.00;99.90;;;;;;4938892;29;20484;-65
2022/02/11 07:44:36;;;;;;;6.00;5.50;;;5.50;99.90;;;;;;4938892;29;20488;-65
2022/02/11 07:47:03;;;;;;;5.47;4.97;;;5.50;99.90;;;;;;4938663;29;20951;-64
2022/02/11 07:49:30;;;;;;;7.07;5.07;;;5.70;99.90;;;;;;4938865;29;20461;-65
2022/02/11 07:51:57;;;;;;;6.93;4.60;;;6.10;99.90;;;;;;4938521;29;20525;-66
2022/02/11 07:54:26;;;;;;;4.17;3.83;;;6.90;99.90;;;;;;4938394;29;20808;-66
2022/02/11 07:56:53;;;;;;;3.50;3.30;;;7.80;99.90;;;;;;4938351;29;20496;-66
2022/02/11 07:59:20;;;;;;;3.77;3.57;;;8.50;99.90;;;;;;4938961;29;20457;-66
2022/02/11 08:01:47;;;;;;;3.57;3.27;;;9.50;99.90;;;;;;4939240;29;20496;-66
2022/02/11 08:04:13;;;;;;;4.00;3.20;;;10.40;99.90;;;;;;4939382;29;20516;-66
2022/02/11 08:06:40;;;;;;;5.27;3.53;;;11.10;99.90;;;;;;4939031;29;20832;-66
2022/02/11 08:09:07;;;;;;;3.30;3.00;;;11.70;99.90;;;;;;4940847;29;20463;-66
2022/02/11 08:11:35;;;;;;;3.80;3.30;;;12.10;99.90;;;;;;4942120;29;20480;-66
2022/02/11 08:14:02;;;;;;;2.87;2.70;;;12.70;99.90;;;;;;4938199;29;20456;-67
2022/02/11 08:16:29;;;;;;;3.00;2.40;;;13.00;99.90;;;;;;4938631;29;20438;-66
2022/02/11 08:18:57;;;;;;;3.23;2.80;;;13.50;99.90;;;;;;4938378;29;20464;-66
2022/02/11 08:21:24;;;;;;;3.37;3.07;;;13.60;99.90;;;;;;4937605;29;20481;-66
2022/02/11 08:23:51;;;;;;;5.23;2.73;;;13.20;99.90;;;;;;4938402;29;20865;-66
2022/02/11 08:26:18;;;;;;;4.03;3.00;;;13.50;99.90;;;;;;4938059;29;20492;-66
2022/02/11 08:28:46;;;;;;;3.43;3.20;;;13.00;98.70;;;;;;4937875;29;20971;-67
2022/02/11 08:31:13;;;;;;;6.93;3.70;;;12.40;99.90;;;;;;4937896;29;20852;-66
2022/02/11 08:33:40;;;;;;;3.47;3.17;;;11.90;99.90;;;;;;4937877;29;20879;-66
2022/02/11 08:36:07;;;;;;;3.27;3.03;;;11.60;99.90;;;;;;4937816;29;20460;-66
2022/02/11 08:38:33;;;;;;;6.37;2.67;;;12.00;99.90;;;;;;4937844;29;20460;-66
2022/02/11 08:41:00;;;;;;;11.37;4.63;;;12.60;99.90;;;;;;4943731;29;20480;-67
2022/02/11 08:43:27;;;;;;;3.00;2.80;;;13.40;99.90;;;;;;4946982;29;20935;-66
2022/02/11 08:45:56;;;;;;;8.83;3.43;;;14.00;98.30;;;;;;4942157;29;20485;-64
2022/02/11 08:48:23;;;;;;;3.60;3.27;;;14.50;96.10;;;;;;4937143;29;20821;-65
2022/02/11 08:50:49;;;;;;;3.27;2.97;;;15.10;94.10;;;;;;4939354;29;20560;-64
2022/02/11 08:53:17;;;;;;;3.83;2.90;;;15.20;94.40;;;;;;4937559;29;20464;-66
2022/02/11 08:55:44;;;;;;;5.63;3.93;;;15.60;92.80;;;;;;4937722;29;20459;-66
2022/02/11 08:58:11;;;;;;;4.33;3.13;;;16.00;92.10;;;;;;4937503;29;20479;-66
2022/02/11 09:00:37;;;;;;;3.13;2.93;;;16.30;90.50;;;;;;4936961;29;20495;-66
2022/02/11 09:03:05;;;;;;;6.30;3.30;;;16.80;86.10;;;;;;4937646;29;20453;-67
2022/02/11 09:05:32;;;;;;;4.83;3.17;;;16.80;84.40;;;;;;4937033;29;20480;-67
2022/02/11 09:08:02;;;;;;;3.90;2.70;;;16.90;82.40;;;;;;4936964;29;20463;-66
2022/02/11 09:10:30;;;;;;;3.97;3.10;;;17.30;80.50;;;;;;4937138;29;20461;-66
2022/02/11 09:12:59;;;;;;;3.13;2.70;;;17.60;79.00;;;;;;4937125;29;20468;-66
2022/02/11 09:15:26;;;;;;;2.90;2.70;;;17.70;76.50;;;;;;4937154;29;20468;-66
2022/02/11 09:17:54;;;;;;;4.03;2.80;;;17.60;75.70;;;;;;4937201;29;20461;-66
2022/02/11 09:20:24;;;;;;;4.57;3.50;;;17.80;72.30;;;;;;4937206;29;20811;-66
2022/02/11 09:22:51;;;;;;;3.20;2.83;;;17.90;72.00;;;;;;4937007;29;20511;-66
2022/02/11 09:25:19;;;;;;;3.93;3.50;;;17.60;72.80;;;;;;4936878;29;20848;-67
2022/02/11 09:27:46;;;;;;;3.03;2.70;;;17.60;71.10;;;;;;4936884;29;20560;-66
2022/02/11 09:30:15;;;;;;;3.97;2.80;;;17.70;71.70;;;;;;4936939;29;20468;-66
2022/02/11 09:32:42;;;;;;;4.13;2.70;;;17.70;69.40;;;;;;4937155;29;20457;-66
2022/02/11 09:35:10;;;;;;;4.40;2.90;;;17.90;70.70;;;;;;4936677;29;20548;-67
2022/02/11 09:37:38;;;;;;;4.50;2.90;;;17.80;69.10;;;;;;4936803;29;20456;-67
2022/02/11 09:40:07;;;;;;;3.90;2.80;;;18.00;68.30;;;;;;4936939;29;20827;-67
2022/02/11 09:42:35;;;;;;;3.00;2.20;;;18.00;67.70;;;;;;4937070;29;20488;-66
2022/02/11 09:45:03;;;;;;;5.23;2.90;;;18.30;66.20;;;;;;4936798;29;20576;-66
2022/02/11 09:47:30;;;;;;;5.00;3.13;;;18.40;66.50;;;;;;4936746;29;20457;-67
2022/02/11 09:49:57;;;;;;;4.23;3.00;;;18.70;65.40;;;;;;4936694;29;20464;-65
2022/02/11 09:52:24;;;;;;;3.67;3.37;;;18.90;65.50;;;;;;4936275;29;20976;-65
2022/02/11 09:55:31;;;;;;;7.30;2.50;;;18.90;62.30;;;;;;4937125;29;20468;-65
2022/02/11 09:57:41;;;;;;;3.13;2.37;;;18.90;60.10;;;;;;4936057;29;21039;-65
2022/02/11 10:00:10;;;;;;;6.23;2.67;;;18.80;61.40;;;;;;4936098;29;20492;-65
2022/02/11 10:02:49;;;;;;;2.97;2.10;;;18.60;60.90;;;;;;4936346;29;20488;-66
2022/02/11 10:05:21;;;;;;;2.80;2.17;;;18.60;62.40;;;;;;4936374;29;20468;-66
2022/02/11 10:07:48;;;;;;;6.80;3.03;;;18.70;61.40;;;;;;4936508;29;20445;-66
2022/02/11 10:10:38;;;;;;;4.87;2.40;;;18.70;62.00;;;;;;4936339;29;20460;-64
2022/02/11 10:13:05;;;;;;;3.80;2.70;;;19.10;62.00;;;;;;4935974;29;20481;-65
2022/02/11 10:15:33;;;;;;;3.47;2.60;;;19.20;60.80;;;;;;4936733;29;20453;-65
2022/02/11 10:17:59;;;;;;;4.83;2.53;;;19.10;60.90;;;;;;4936762;29;20445;-65
2022/02/11 10:20:29;;;;;;;7.23;3.00;;;19.00;60.90;;;;;;4936395;29;20508;-65
2022/02/11 10:23:11;;;;;;;4.73;2.40;;;18.20;57.90;;;;;;4936281;29;20886;-65
2022/02/11 10:26:02;;;;;;;4.13;2.37;;;18.10;59.90;;;;;;4936387;29;20547;-65
2022/02/11 10:28:32;;;;;;;5.30;2.80;;;17.50;61.20;;;;;;4935940;29;20913;-67
2022/02/11 10:31:11;;;;;;;4.17;2.33;;;17.50;60.40;;;;;;4936208;29;20488;-65
2022/02/11 10:34:03;;;;;;;5.50;2.87;;;17.50;62.10;;;;;;4935957;29;20924;-65
2022/02/11 10:36:32;;;;;;;3.50;2.77;;;17.80;62.00;;;;;;4936039;29;20971;-65
2022/02/11 10:39:05;;;;;;;2.23;2.00;;;18.40;63.20;;;;;;4936119;29;20456;-65
2022/02/11 10:41:35;;;;;;;4.30;2.93;;;18.90;62.40;;;;;;4936213;29;20481;-65
2022/02/11 10:44:06;;;;;;;3.27;3.00;;;18.80;59.30;;;;;;4936374;29;20464;-65
2022/02/11 10:46:35;;;;;;;5.40;3.07;;;19.10;58.90;;;;;;4935721;29;20472;-65
2022/02/11 10:49:02;;;;;;;5.77;3.70;;;18.80;59.20;;;;;;4936137;29;20461;-66
2022/02/11 10:51:29;;;;;;;3.40;2.63;;;18.80;60.30;;;;;;4935983;29;20487;-66
2022/02/11 10:53:56;;;;;;;4.43;3.10;;;18.90;58.50;;;;;;4936007;29;20472;-66
2022/02/11 10:56:23;;;;;;;3.57;2.73;;;19.00;58.40;;;;;;4936029;29;20488;-66
2022/02/11 10:58:56;;;;;;;5.33;3.00;;;18.30;59.10;;;;;;4935885;29;20453;-66
2022/02/11 11:01:26;;;;;;;5.70;2.83;;;18.10;58.80;;;;;;4935684;29;20493;-66
2022/02/11 11:03:53;;;;;;;5.40;3.10;;;18.20;58.90;;;;;;4935744;29;20806;-66
2022/02/11 11:06:20;;;;;;;6.10;3.20;;;17.50;61.10;;;;;;4936011;29;20486;-68
2022/02/11 11:08:48;;;;;;;5.47;3.20;;;17.20;61.20;;;;;;4935947;29;20515;-66
2022/02/11 11:11:18;;;;;;;3.77;2.67;;;16.90;62.00;;;;;;4936994;29;20480;-66
2022/02/11 11:13:48;;;;;;;5.97;2.60;;;16.50;65.40;;;;;;4940355;29;20461;-66
2022/02/11 11:16:18;;;;;;;6.73;2.90;;;15.80;68.10;;;;;;4939649;29;20468;-66
2022/02/11 11:18:45;;;;;;;4.57;3.00;;;15.50;65.50;;;;;;4938980;29;20492;-66
2022/02/11 11:21:13;;;;;;;4.23;2.80;;;14.70;66.50;;;;;;4939410;29;20512;-66
2022/02/11 11:23:55;;;;;;;3.40;2.67;;;14.00;68.90;;;;;;4939349;29;20461;-66
2022/02/11 11:26:35;;;;;;;3.57;2.53;;;13.10;70.60;;;;;;4939511;29;20532;-66
2022/02/11 11:29:07;;;;;;;4.77;3.03;;;12.60;74.70;;;;;;4939435;29;20440;-66
2022/02/11 11:31:35;;;;;;;3.60;3.03;;;11.90;76.20;;;;;;4939360;29;20480;-66
2022/02/11 11:34:24;;;;;;;5.23;3.33;;;11.10;77.70;;;;;;4939135;29;20461;-66
2022/02/11 11:36:53;;;;;;;3.10;2.50;;;10.40;81.60;;;;;;4938910;29;20457;-66
2022/02/11 11:39:20;;;;;;;4.77;2.70;;;9.80;87.20;;;;;;4939540;29;20546;-66
2022/02/11 11:41:59;;;;;;;3.80;2.97;;;9.70;89.80;;;;;;4939386;29;20480;-65
2022/02/11 11:44:26;;;;;;;5.20;2.53;;;9.60;91.00;;;;;;4940229;29;20824;-66
2022/02/11 11:47:00;;;;;;;4.33;2.67;;;9.70;92.10;;;;;;4939393;29;20903;-65
2022/02/11 11:49:27;;;;;;;3.33;3.13;;;9.60;93.40;;;;;;4945099;29;20445;-65
2022/02/11 11:52:05;;;;;;;9.33;3.40;;;9.40;94.10;;;;;;4945527;29;20481;-65
2022/02/11 11:54:32;;;;;;;4.07;2.80;;;9.20;94.50;;;;;;4940336;29;20507;-65
2022/02/11 11:57:02;;;;;;;4.20;2.83;;;9.10;95.80;;;;;;4939222;29;20460;-65
2022/02/11 11:59:35;;;;;;;4.07;2.60;;;9.00;96.60;;;;;;4939067;29;20456;-65
2022/02/11 12:02:05;;;;;;;4.57;4.10;;;9.00;95.50;;;;;;4938175;29;20859;-65
2022/02/11 12:04:34;;;;;;;4.07;2.90;;;9.00;97.10;;;;;;4938677;29;20445;-65
2022/02/11 12:07:03;;;;;;;4.17;2.67;;;9.00;97.40;;;;;;4938139;29;20484;-65
2022/02/11 12:09:31;;;;;;;5.80;2.80;;;9.00;97.30;;;;;;4938294;29;20855;-65
2022/02/11 12:12:00;;;;;;;3.83;2.30;;;8.90;97.50;;;;;;4938147;29;20472;-65
2022/02/11 12:14:28;;;;;;;5.27;3.40;;;8.90;97.30;;;;;;4938235;29;20879;-65
2022/02/11 12:16:56;;;;;;;6.37;3.40;;;8.90;96.20;;;;;;4938325;29;20460;-65
2022/02/11 12:19:25;;;;;;;2.43;2.10;;;8.90;96.50;;;;;;4938535;29;20457;-65
2022/02/11 12:21:52;;;;;;;3.53;2.40;;;8.80;96.10;;;;;;4938339;29;20480;-65
2022/02/11 12:27:24;;;;;;;4.40;2.73;;;8.70;96.00;;;;;;4938631;29;20456;-65
2022/02/11 12:29:53;;;;;;;4.77;3.10;;;8.70;97.00;;;;;;4938775;29;20441;-65
2022/02/11 12:32:20;;;;;;;3.07;2.77;;;8.70;97.20;;;;;;4938338;29;20835;-66
2022/02/11 12:34:50;;;;;;;5.93;3.33;;;8.60;97.50;;;;;;4938244;29;20461;-66
2022/02/11 12:37:18;;;;;;;3.93;2.83;;;8.60;98.20;;;;;;4938165;29;20445;-65
2022/02/11 12:39:46;;;;;;;7.07;2.93;;;8.70;98.70;;;;;;4938263;29;20508;-65
2022/02/11 12:42:17;;;;;;;2.67;2.47;;;8.60;98.40;;;;;;4938347;29;20481;-65
2022/02/11 12:44:45;;;;;;;5.00;2.80;;;8.50;99.60;;;;;;4940062;29;20782;-65
2022/02/11 12:47:12;;;;;;;7.30;3.90;;;8.60;99.90;;;;;;4941515;29;20485;-65
2022/02/11 12:49:45;;;;;;;5.10;2.80;;;8.60;99.80;;;;;;4937897;29;20743;-65
2022/02/11 12:52:20;;;;;;;7.43;2.90;;;8.60;99.00;;;;;;4937967;29;20480;-65
2022/02/11 12:55:01;;;;;;;6.13;2.87;;;8.70;99.60;;;;;;4938507;29;20440;-64
2022/02/11 12:57:29;;;;;;;4.10;2.43;;;8.70;98.60;;;;;;4937577;29;20968;-65
2022/02/11 12:59:57;;;;;;;6.07;2.67;;;8.50;98.00;;;;;;4937635;29;20532;-65
2022/02/11 13:02:25;;;;;;;3.23;2.80;;;8.60;98.30;;;;;;4937222;29;20489;-65
2022/02/11 13:05:03;;;;;;;6.50;2.67;;;8.90;99.40;;;;;;4937799;29;20540;-65
2022/02/11 13:07:31;;;;;;;2.30;2.10;;;9.10;98.10;;;;;;4937662;29;20472;-64
2022/02/11 13:09:59;;;;;;;5.00;3.17;;;9.10;96.90;;;;;;4937594;29;20464;-65
2022/02/11 13:12:33;;;;;;;2.80;2.50;;;9.00;96.20;;;;;;4937509;29;20481;-65
2022/02/11 13:15:02;;;;;;;3.17;2.13;;;9.00;96.40;;;;;;4937546;29;20453;-66
2022/02/11 13:17:30;;;;;;;3.20;2.80;;;9.20;97.30;;;;;;4937576;29;20467;-66
2022/02/11 13:20:11;;;;;;;4.07;2.27;;;9.40;96.80;;;;;;4937436;29;20556;-65
2022/02/11 13:22:41;;;;;;;3.50;2.57;;;9.60;97.20;;;;;;4938380;29;20987;-65
2022/02/11 13:25:08;;;;;;;2.73;2.50;;;9.70;97.20;;;;;;4937539;29;20461;-66
2022/02/11 13:27:43;;;;;;;4.73;2.90;;;10.00;97.30;;;;;;4937387;29;20490;-67
2022/02/11 13:30:12;;;;;;;4.53;2.40;;;10.00;95.20;;;;;;4937102;29;20445;-65
2022/02/11 13:32:39;;;;;;;3.70;2.23;;;9.60;95.30;;;;;;4937513;29;20480;-65
2022/02/11 13:35:08;;;;;;;5.37;2.70;;;9.50;96.30;;;;;;4936643;29;20461;-65
2022/02/11 13:37:45;;;;;;;3.90;2.43;;;9.60;96.50;;;;;;4937111;29;20457;-65
2022/02/11 13:40:19;;;;;;;3.03;2.70;;;9.60;98.00;;;;;;4937305;29;20447;-66
2022/02/11 13:42:57;;;;;;;3.37;2.50;;;9.60;96.90;;;;;;4936876;29;20908;-65
2022/02/11 13:45:27;;;;;;;2.47;2.27;;;9.50;97.70;;;;;;4936993;29;20460;-65
2022/02/11 13:48:08;;;;;;;3.83;2.80;;;9.70;97.90;;;;;;4936782;29;21101;-66
2022/02/11 13:51:02;;;;;;;2.20;2.00;;;9.70;96.10;;;;;;4937234;29;20492;-65
2022/02/11 13:53:36;;;;;;;3.10;2.50;;;9.60;96.90;;;;;;4937351;29;20987;-65
2022/02/11 13:56:04;;;;;;;3.03;2.73;;;9.40;95.70;;;;;;4937189;29;20552;-65
2022/02/11 13:58:33;;;;;;;3.87;2.40;;;9.40;96.90;;;;;;4936806;29;20457;-65
2022/02/11 14:01:00;;;;;;;3.10;2.10;;;9.60;97.90;;;;;;4936844;29;20529;-65
2022/02/11 14:03:28;;;;;;;7.20;2.23;;;9.60;95.90;;;;;;4937377;29;20487;-65
2022/02/11 14:06:00;;;;;;;5.37;2.70;;;9.50;96.20;;;;;;4937188;29;20457;-65
2022/02/11 14:08:41;;;;;;;3.83;2.30;;;9.50;96.00;;;;;;4937412;29;20433;-65
2022/02/11 14:11:13;;;;;;;3.10;2.60;;;9.60;95.10;;;;;;4937024;29;20991;-65
2022/02/11 14:13:40;;;;;;;4.87;2.03;;;9.60;95.30;;;;;;4936905;29;20444;-65
2022/02/11 14:16:07;;;;;;;2.67;2.20;;;9.50;95.20;;;;;;4937441;29;20463;-65
2022/02/11 14:18:34;;;;;;;4.63;1.90;;;9.40;94.20;;;;;;4943149;29;20479;-65
2022/02/11 14:21:01;;;;;;;2.80;2.03;;;9.40;95.20;;;;;;4936995;29;20472;-65
2022/02/11 14:23:28;;;;;;;4.23;1.97;;;9.20;94.20;;;;;;4937093;29;20479;-65
2022/02/11 14:25:56;;;;;;;2.10;2.00;;;9.10;93.40;;;;;;4937207;29;20516;-65
2022/02/11 14:28:25;;;;;;;4.03;2.03;;;9.00;94.80;;;;;;4936477;29;21003;-66
2022/02/11 14:30:53;;;;;;;2.97;2.77;;;8.90;95.70;;;;;;4936510;29;20476;-66
2022/02/11 14:33:20;;;;;;;2.27;2.13;;;9.00;96.10;;;;;;4936245;29;20963;-66
2022/02/11 14:35:47;;;;;;;3.23;2.10;;;9.10;95.70;;;;;;4936225;29;20464;-65
2022/02/11 14:38:14;;;;;;;5.87;2.40;;;9.20;96.70;;;;;;4936774;29;20453;-66
2022/02/11 14:41:45;;;;;;;2.90;2.10;;;9.40;95.70;;;;;;4936291;29;20480;-65
2022/02/11 14:43:29;;;;;;;4.60;2.47;;;9.40;94.40;;;;;;4936160;29;20459;-66
2022/02/11 14:45:56;;;;;;;5.30;2.33;;;9.30;94.60;;;;;;4936580;29;20471;-64
2022/02/11 14:48:23;;;;;;;3.93;2.60;;;9.20;95.40;;;;;;4940023;29;20908;-66
2022/02/11 14:50:50;;;;;;;3.50;2.00;;;8.90;95.60;;;;;;4940091;29;20483;-66
2022/02/11 14:53:17;;;;;;;7.20;2.90;;;8.70;95.10;;;;;;4941332;29;20494;-67
2022/02/11 14:55:44;;;;;;;4.57;2.40;;;8.60;95.50;;;;;;4947459;29;20459;-66
2022/02/11 14:58:10;;;;;;;6.07;2.40;;;8.40;96.30;;;;;;4946680;29;20449;-66
2022/02/11 15:00:40;;;;;;;4.10;2.20;;;8.40;96.60;;;;;;4940484;29;20491;-66
2022/02/11 15:03:08;;;;;;;2.77;2.27;;;8.30;97.20;;;;;;4940532;29;20441;-66
2022/02/11 15:05:34;;;;;;;3.47;2.43;;;8.10;96.10;;;;;;4940283;29;20539;-64
2022/02/11 15:08:01;;;;;;;4.00;2.00;;;8.10;96.70;;;;;;4940255;29;21004;-65
2022/02/11 15:10:29;;;;;;;3.90;2.13;;;8.10;97.00;;;;;;4940593;29;20530;-65
2022/02/11 15:12:56;;;;;;;2.10;1.90;;;8.00;96.70;;;;;;4940184;29;20952;-65
2022/02/11 15:15:23;;;;;;;4.73;2.30;;;7.90;96.80;;;;;;4939865;29;20605;-64
2022/02/11 15:17:51;;;;;;;2.30;2.10;;;7.80;96.80;;;;;;4940029;29;20456;-64
2022/02/11 15:20:17;;;;;;;2.77;2.27;;;7.80;97.50;;;;;;4939770;29;20463;-64
2022/02/11 15:22:44;;;;;;;6.53;2.27;;;7.90;99.90;;;;;;4939976;29;20456;-65
2022/02/11 15:25:11;;;;;;;2.93;2.40;;;7.90;99.90;;;;;;4939477;29;20469;-64
2022/02/11 15:27:37;;;;;;;5.87;2.57;;;7.90;99.90;;;;;;4939451;29;20480;-66
2022/02/11 15:30:05;;;;;;;7.60;2.90;;;7.80;99.90;;;;;;4939248;29;20452;-66
2022/02/11 15:32:32;;;;;;;4.30;2.40;;;7.70;99.90;;;;;;4939287;29;20484;-64
2022/02/11 15:35:00;;;;;;;7.60;3.33;;;7.70;99.90;;;;;;4939444;29;20464;-64
2022/02/11 15:37:26;;;;;;;4.37;2.80;;;7.60;99.90;;;;;;4939374;29;20957;-65
2022/02/11 15:39:53;;;;;;;3.90;2.73;;;7.60;99.90;;;;;;4939169;29;20464;-65
2022/02/11 15:42:20;;;;;;;2.83;2.50;;;7.60;99.90;;;;;;4938675;29;20488;-64
2022/02/11 15:44:47;;;;;;;3.70;2.50;;;7.50;99.90;;;;;;4939035;29;20539;-65
2022/02/11 15:47:14;;;;;;;2.70;2.50;;;7.40;99.90;;;;;;4938647;29;20481;-66
2022/02/11 15:49:40;;;;;;;5.67;2.73;;;7.40;99.90;;;;;;4939668;29;20463;-65
2022/02/11 15:52:09;;;;;;;6.00;2.90;;;7.40;99.90;;;;;;4938703;29;20477;-65
2022/02/11 15:54:36;;;;;;;3.10;2.60;;;7.30;99.90;;;;;;4938863;29;20511;-65
2022/02/11 15:57:03;;;;;;;4.60;3.50;;;7.30;99.90;;;;;;4938562;29;20456;-65
2022/02/11 15:59:31;;;;;;;4.10;2.77;;;7.20;99.90;;;;;;4938835;29;20456;-65
2022/02/11 16:01:58;;;;;;;3.10;2.80;;;7.20;99.90;;;;;;4938670;29;20499;-65
2022/02/11 16:04:24;;;;;;;9.53;2.73;;;7.20;99.90;;;;;;4938852;29;20448;-65
2022/02/11 16:06:51;;;;;;;6.90;2.80;;;7.10;99.90;;;;;;4938400;29;20802;-65
2022/02/11 16:09:19;;;;;;;3.87;2.30;;;7.10;99.90;;;;;;4938559;29;20468;-66
2022/02/11 16:11:46;;;;;;;5.93;3.53;;;7.00;99.90;;;;;;4938239;29;20837;-65
2022/02/11 16:14:16;;;;;;;8.63;3.33;;;7.00;99.90;;;;;;4939010;29;20952;-65
2022/02/11 16:16:43;;;;;;;11.13;3.40;;;7.00;99.90;;;;;;4938541;29;20528;-65
2022/02/11 16:19:10;;;;;;;5.03;2.90;;;6.80;99.90;;;;;;4943189;29;20468;-64
2022/02/11 16:21:37;;;;;;;8.77;3.80;;;6.70;99.90;;;;;;4938309;29;20472;-65
2022/02/11 16:24:04;;;;;;;4.80;4.27;;;6.40;99.90;;;;;;4938191;29;20525;-65
2022/02/11 16:26:33;;;;;;;12.50;4.30;;;6.10;99.90;;;;;;4938169;29;20983;-65
2022/02/11 16:29:00;;;;;;;6.67;4.53;;;5.90;99.90;;;;;;4938068;29;20574;-65
2022/02/11 16:31:27;;;;;;;5.23;4.73;;;5.70;99.90;;;;;;4940664;29;20481;-66
2022/02/11 16:33:55;;;;;;;10.50;5.90;;;5.60;99.90;;;;;;4939018;29;20488;-65
2022/02/11 16:36:24;;;;;;;6.20;5.40;;;5.40;99.90;;;;;;4938548;29;20464;-64
2022/02/11 16:38:51;;;;;;;6.30;5.10;;;5.30;99.90;;;;;;4938480;29;20460;-65
2022/02/11 16:41:20;;;;;;;6.47;4.57;;;5.30;99.90;;;;;;4938416;29;20507;-64
2022/02/11 16:43:48;;;;;;;5.23;4.50;;;5.30;99.90;;;;;;4938567;29;20549;-65
2022/02/11 16:46:15;;;;;;;9.10;4.00;;;5.30;99.90;;;;;;4938392;29;20448;-66
2022/02/11 16:48:42;;;;;;;7.57;3.33;;;5.30;99.90;;;;;;4938320;29;20579;-66
2022/02/11 16:51:09;;;;;;;3.90;3.43;;;5.20;99.90;;;;;;4938303;29;20479;-66
2022/02/11 16:53:36;;;;;;;3.63;3.30;;;5.30;99.90;;;;;;4938320;29;20464;-66
2022/02/11 16:56:02;;;;;;;11.40;3.27;;;5.30;99.90;;;;;;4938219;29;20464;-66
2022/02/11 16:58:29;;;;;;;5.70;2.87;;;5.20;99.90;;;;;;4937793;29;20952;-64
2022/02/11 17:00:58;;;;;;;6.13;2.90;;;5.20;99.90;;;;;;4938161;29;20520;-64
2022/02/11 17:03:24;;;;;;;6.70;2.90;;;5.20;99.90;;;;;;4938502;29;20824;-64
2022/02/11 17:05:51;;;;;;;6.70;3.90;;;5.20;99.90;;;;;;4938017;29;20468;-65
2022/02/11 17:08:18;;;;;;;7.73;3.97;;;5.20;99.90;;;;;;4937303;29;20487;-64
2022/02/11 17:10:46;;;;;;;8.00;3.60;;;5.20;99.90;;;;;;4936964;29;21000;-65
2022/02/11 17:13:14;;;;;;;4.10;3.30;;;5.20;99.90;;;;;;4937251;29;20465;-65
2022/02/11 17:15:41;;;;;;;4.70;3.30;;;5.20;99.90;;;;;;4937222;29;20464;-65
2022/02/11 17:18:09;;;;;;;4.77;3.73;;;5.10;99.90;;;;;;5045933;23;20482;-65
2022/02/11 17:20:36;;;;;;;5.60;3.70;;;5.10;99.90;;;;;;4975404;28;20459;-65
2022/02/11 17:23:03;;;;;;;6.33;3.43;;;5.20;99.90;;;;;;4975531;28;20474;-66
2022/02/11 17:25:29;;;;;;;8.93;4.80;;;5.20;99.90;;;;;;4975554;28;20480;-65
2022/02/11 17:27:56;;;;;;;4.63;3.43;;;5.20;99.90;;;;;;4975066;28;20483;-66
2022/02/11 17:30:23;;;;;;;6.17;4.00;;;5.20;99.90;;;;;;4975350;28;20961;-64
2022/02/11 17:32:50;;;;;;;4.60;3.90;;;5.30;99.90;;;;;;4975890;28;20857;-64
2022/02/11 17:35:18;;;;;;;7.13;4.03;;;5.30;99.90;;;;;;4975771;28;20501;-65
2022/02/11 17:37:45;;;;;;;4.03;3.63;;;5.30;99.90;;;;;;4975581;28;20541;-65
2022/02/11 17:40:12;;;;;;;6.37;4.10;;;5.30;99.90;;;;;;4976005;28;20466;-65
2022/02/11 17:42:39;;;;;;;8.33;5.83;;;5.20;99.90;;;;;;4975432;28;20509;-66
2022/02/11 17:45:07;;;;;;;9.00;8.17;;;5.20;99.90;;;;;;4975785;28;20967;-64
2022/02/11 17:47:33;;;;;;;6.53;5.77;;;5.20;99.90;;;;;;4975029;28;20485;-66
2022/02/11 17:50:00;;;;;;;6.10;4.80;;;5.20;99.90;;;;;;4974715;28;20847;-65
2022/02/11 17:52:28;;;;;;;5.93;4.90;;;5.10;99.90;;;;;;4975181;28;20463;-66
2022/02/11 17:54:56;;;;;;;5.73;4.20;;;5.10;99.90;;;;;;4974749;28;20958;-65
2022/02/11 17:57:24;;;;;;;6.40;5.10;;;5.00;99.90;;;;;;4975238;28;20459;-65
2022/02/11 17:59:50;;;;;;;5.40;4.70;;;5.00;99.90;;;;;;4974799;28;20981;-65
2022/02/11 18:02:17;;;;;;;6.60;4.00;;;5.00;99.90;;;;;;4975418;28;20462;-65
2022/02/11 18:04:44;;;;;;;6.40;4.90;;;5.00;99.90;;;;;;4975184;28;20468;-65